CPX786 Details

Departure: Kingsford Smith International Airport (YSSY)
Arrival: Chek Lap Kok International (VHHH) at N/A
Route: RIC H202 AGETA R340 AMN A461 ZAM A583 SABNO V541 DOVAR V541 BETTY
Notes:


Current Weather Information
YSSY 191630Z AUTO 30010KT 9999 // NCD 09/M01 Q1023 FM1630 MOD/SEV TURB BLW 5000FT
VHHH 191630Z VRB04KT 9999 FEW025 30/26 Q1005 NOSIG